Abbott, New Mexico
Current Conditions -  °F | °C
As of 12:10 PM on Monday 22 Dec 2014 (Local Time) from KRTN Reporting Station
Light Snow Light Snow  
Wind Chill: 20°   Ceiling: 3300
Heat Index: 30°   Visibility: 1mi
Dew Point: 28°   Wind: 13mph
Humidity: 92%   Direction: 90°E
Pressure: 29.69"   Gusts: NA
Location:  36.3883°N, 104.381°W
Report Text: KRTN 221910Z AUTO 09011KT 1SM -SN BR FEW004 SCT022 OVC033 M01/M02 A2969 RMK AO2 P0001 T10111022
Loading
Personal Weather Stations






























Interactive Weather Map New forecast layout! Learn more

10-Day Weather Forecast

Advertisements
Track Severe Weather on mobile